createdAt,value
2019-03-21T00:01:32.107Z,2.72
2019-03-21T00:04:34.149Z,2.72
2019-03-21T00:07:36.062Z,2.78
2019-03-21T00:10:41.612Z,2.86
2019-03-21T00:13:44.692Z,2.92
2019-03-21T00:16:46.581Z,2.97
2019-03-21T00:19:48.495Z,3.02
2019-03-21T00:22:50.379Z,3.06
2019-03-21T00:25:52.275Z,3.12
2019-03-21T00:28:54.173Z,3.18
2019-03-21T00:31:56.219Z,3.21
2019-03-21T00:34:58.148Z,3.23
2019-03-21T00:38:01.183Z,3.25
2019-03-21T00:41:03.595Z,3.31
2019-03-21T00:44:05.536Z,3.32
2019-03-21T00:47:07.536Z,3.34
2019-03-21T00:50:22.091Z,3.36
2019-03-21T00:53:24.151Z,3.40
2019-03-21T00:56:26.085Z,3.41
2019-03-21T00:59:27.978Z,3.38
2019-03-21T01:02:29.972Z,3.36
2019-03-21T01:05:31.807Z,3.37
2019-03-21T01:08:33.761Z,3.33
2019-03-21T01:11:35.742Z,3.27
2019-03-21T01:14:37.637Z,3.23
2019-03-21T01:17:39.534Z,3.15
2019-03-21T01:20:41.442Z,3.09
2019-03-21T01:23:44.630Z,3.08
2019-03-21T01:26:46.839Z,3.05
2019-03-21T01:29:48.876Z,3.04
2019-03-21T01:32:50.863Z,3.06
2019-03-21T01:35:52.778Z,3.09
2019-03-21T01:38:54.773Z,3.14
2019-03-21T01:41:57.238Z,3.17
2019-03-21T01:44:59.107Z,3.16
2019-03-21T01:48:01.035Z,3.17
2019-03-21T01:51:02.960Z,3.20
2019-03-21T01:54:04.855Z,3.22
2019-03-21T01:57:06.819Z,3.24
2019-03-21T02:00:12.302Z,3.28
2019-03-21T02:03:14.259Z,3.30
2019-03-21T02:06:16.158Z,3.32
2019-03-21T02:09:18.121Z,3.29
2019-03-21T02:12:21.282Z,3.24
2019-03-21T02:15:25.009Z,3.18
2019-03-21T02:18:26.995Z,3.16
2019-03-21T02:21:28.918Z,3.17
2019-03-21T02:24:30.774Z,3.20
2019-03-21T02:27:32.644Z,3.25
2019-03-21T02:30:42.334Z,3.30
2019-03-21T02:33:44.257Z,3.34
2019-03-21T02:36:46.398Z,3.47
2019-03-21T02:39:58.920Z,3.56
2019-03-21T02:42:52.360Z,3.66
2019-03-21T02:45:54.197Z,3.76
2019-03-21T02:48:56.023Z,3.84
2019-03-21T02:51:57.947Z,3.92
2019-03-21T02:54:59.905Z,3.99
2019-03-21T02:58:01.848Z,4.09
2019-03-21T03:01:03.779Z,4.15
2019-03-21T03:04:05.679Z,4.20
2019-03-21T03:07:07.533Z,4.23
2019-03-21T03:10:13.060Z,4.21
2019-03-21T03:13:14.928Z,4.28
2019-03-21T03:16:17.302Z,4.31
2019-03-21T03:19:19.342Z,4.34
2019-03-21T03:22:21.254Z,4.36
2019-03-21T03:25:23.090Z,4.39
2019-03-21T03:28:30.554Z,4.35
2019-03-21T03:31:32.530Z,4.37
2019-03-21T03:34:34.464Z,4.34
2019-03-21T03:37:36.354Z,4.36
2019-03-21T03:41:00.222Z,4.36
2019-03-21T03:44:02.184Z,4.40
2019-03-21T03:47:04.100Z,4.43
2019-03-21T03:50:09.270Z,4.52
2019-03-21T03:53:11.167Z,4.62
2019-03-21T03:56:13.106Z,4.72
2019-03-21T03:59:15.045Z,4.83
2019-03-21T04:02:16.971Z,4.88
2019-03-21T04:05:19.498Z,4.93
2019-03-21T04:08:21.425Z,5.00
2019-03-21T04:11:23.301Z,5.05
2019-03-21T04:14:25.184Z,5.09
2019-03-21T04:17:27.147Z,5.13
2019-03-21T04:20:35.795Z,5.19
2019-03-21T04:23:37.750Z,5.26
2019-03-21T04:26:39.715Z,5.32
2019-03-21T04:29:41.698Z,5.36
2019-03-21T04:32:44.154Z,5.39
2019-03-21T04:35:46.469Z,5.46
2019-03-21T04:38:49.751Z,5.49
2019-03-21T04:41:51.739Z,5.57
2019-03-21T04:44:53.742Z,5.54
2019-03-21T04:47:55.590Z,5.63
2019-03-21T04:50:57.479Z,5.63
2019-03-21T04:53:59.355Z,5.70
2019-03-21T04:57:01.293Z,5.70
2019-03-21T05:00:09.805Z,5.75
2019-03-21T05:03:21.477Z,5.79
2019-03-21T05:06:23.351Z,5.83
2019-03-21T05:09:25.263Z,5.92
2019-03-21T05:12:27.107Z,6.02
2019-03-21T05:15:35.200Z,6.06
2019-03-21T05:18:46.757Z,6.13
2019-03-21T05:21:48.754Z,6.17
2019-03-21T05:24:50.661Z,6.20
2019-03-21T05:27:52.663Z,6.31
2019-03-21T05:31:09.943Z,6.39
2019-03-21T05:34:11.923Z,6.47
2019-03-21T05:37:13.858Z,6.49
2019-03-21T05:40:18.295Z,6.58
2019-03-21T05:43:36.013Z,6.73
2019-03-21T05:46:37.948Z,6.94
2019-03-21T05:49:39.834Z,7.10
2019-03-21T05:52:41.843Z,7.14
2019-03-21T05:55:44.037Z,7.21
2019-03-21T05:58:46.163Z,7.24
2019-03-21T06:01:48.152Z,7.36
2019-03-21T06:04:50.114Z,7.55
2019-03-21T06:08:07.400Z,7.75
2019-03-21T06:11:09.641Z,7.95
2019-03-21T06:14:11.541Z,8.16
2019-03-21T06:17:13.490Z,8.32
2019-03-21T06:20:30.967Z,8.47
2019-03-21T06:23:48.363Z,8.59
2019-03-21T06:26:53.926Z,8.67
2019-03-21T06:29:55.868Z,8.73
2019-03-21T06:32:57.853Z,8.80
2019-03-21T06:36:00.054Z,8.86
2019-03-21T06:39:01.932Z,8.94
2019-03-21T06:42:06.336Z,8.98
2019-03-21T06:45:08.508Z,9.07
2019-03-21T06:48:10.440Z,9.11
2019-03-21T06:51:12.490Z,9.17
2019-03-21T06:54:14.440Z,9.23
2019-03-21T06:57:16.432Z,9.30
2019-03-21T07:00:18.305Z,9.34
2019-03-21T07:03:20.254Z,9.42
2019-03-21T07:06:22.146Z,9.43
2019-03-21T07:09:24.111Z,9.48
2019-03-21T07:12:26.009Z,9.56
2019-03-21T07:15:28.007Z,9.64
2019-03-21T07:18:29.874Z,9.79
2019-03-21T07:21:31.878Z,9.91
2019-03-21T07:24:34.835Z,10.06
2019-03-21T07:27:36.714Z,10.14
2019-03-21T07:30:38.610Z,10.18
2019-03-21T07:33:40.543Z,10.27
2019-03-21T07:36:42.417Z,10.31
2019-03-21T07:39:44.295Z,10.41
2019-03-21T07:42:46.299Z,10.50
2019-03-21T07:45:48.354Z,10.61
2019-03-21T07:48:50.282Z,10.74
2019-03-21T07:51:52.232Z,10.90
2019-03-21T07:54:54.148Z,11.09
2019-03-21T07:57:56.141Z,11.18
2019-03-21T08:00:58.068Z,11.33
2019-03-21T08:04:02.755Z,11.49
2019-03-21T08:07:03.897Z,11.56
2019-03-21T08:10:09.220Z,11.67
2019-03-21T08:13:11.179Z,11.75
2019-03-21T08:16:13.064Z,11.77
2019-03-21T08:19:14.970Z,11.85
2019-03-21T08:22:16.810Z,11.92
2019-03-21T08:25:18.741Z,12.01
2019-03-21T08:28:20.741Z,12.09
2019-03-21T08:31:22.668Z,12.15
2019-03-21T08:34:24.700Z,12.19
2019-03-21T08:37:26.752Z,12.19
2019-03-21T08:40:28.830Z,12.27
2019-03-21T08:43:30.880Z,12.32
2019-03-21T08:46:32.939Z,12.43
2019-03-21T08:49:34.858Z,12.51
2019-03-21T08:52:36.826Z,12.66
2019-03-21T08:55:38.737Z,12.75
2019-03-21T08:58:40.686Z,12.87
2019-03-21T09:01:42.569Z,12.92
2019-03-21T09:04:44.550Z,12.91
2019-03-21T09:07:46.567Z,12.94
2019-03-21T09:10:48.636Z,13.00
2019-03-21T09:13:50.602Z,13.07
2019-03-21T09:16:52.544Z,13.15
2019-03-21T09:19:54.468Z,13.20
2019-03-21T09:22:57.495Z,13.23
2019-03-21T09:25:59.376Z,13.19
2019-03-21T09:29:01.304Z,13.15
2019-03-21T09:32:03.166Z,13.20
2019-03-21T09:35:06.220Z,13.23
2019-03-21T09:38:08.111Z,13.30
2019-03-21T09:41:10.060Z,13.32
2019-03-21T09:44:12.423Z,13.47
2019-03-21T09:47:14.394Z,13.52
2019-03-21T09:50:28.029Z,13.57
2019-03-21T09:53:29.962Z,13.55
2019-03-21T09:56:31.873Z,13.56
2019-03-21T09:59:33.736Z,13.58
2019-03-21T10:02:35.602Z,13.64
2019-03-21T10:05:37.554Z,13.75
2019-03-21T10:08:39.491Z,13.76
2019-03-21T10:11:41.424Z,13.79
2019-03-21T10:14:43.851Z,13.89
2019-03-21T10:17:45.742Z,14.07
2019-03-21T10:20:47.716Z,14.07
2019-03-21T10:23:49.623Z,14.18
2019-03-21T10:26:51.493Z,14.22
2019-03-21T10:29:53.423Z,14.40
2019-03-21T10:32:55.328Z,14.54
2019-03-21T10:35:57.282Z,14.72
2019-03-21T10:38:59.162Z,14.89
2019-03-21T10:42:01.069Z,15.03
2019-03-21T10:45:05.764Z,14.90
2019-03-21T10:48:08.766Z,14.84
2019-03-21T10:51:10.711Z,15.01
2019-03-21T10:54:12.701Z,15.21
2019-03-21T10:57:14.627Z,15.31
2019-03-21T11:00:16.795Z,15.41
2019-03-21T11:03:18.757Z,15.62
2019-03-21T11:06:21.776Z,15.67
2019-03-21T11:09:23.788Z,15.69
2019-03-21T11:12:25.700Z,15.70
2019-03-21T11:15:27.619Z,15.69
2019-03-21T11:18:36.000Z,15.70
2019-03-21T11:21:33.463Z,15.67
2019-03-21T11:24:35.742Z,15.71
2019-03-21T11:27:37.685Z,15.78
2019-03-21T11:30:41.015Z,15.85
2019-03-21T11:33:42.949Z,15.74
2019-03-21T11:36:44.997Z,15.80
2019-03-21T11:39:46.939Z,15.85
2019-03-21T11:42:48.913Z,15.84
2019-03-21T11:45:51.307Z,15.92
2019-03-21T11:48:53.347Z,15.96
2019-03-21T11:51:55.231Z,15.91
2019-03-21T11:54:57.192Z,16.01
2019-03-21T11:57:59.108Z,16.00
2019-03-21T12:01:00.991Z,16.00
2019-03-21T12:04:03.075Z,16.10
2019-03-21T12:07:05.181Z,16.15
2019-03-21T12:10:10.013Z,16.00
2019-03-21T12:13:11.972Z,16.20
2019-03-21T12:16:13.896Z,16.08
2019-03-21T12:19:15.822Z,16.03
2019-03-21T12:22:29.163Z,16.06
2019-03-21T12:25:21.557Z,16.03
2019-03-21T12:28:23.478Z,16.08
2019-03-21T12:31:25.802Z,16.11
2019-03-21T12:34:27.791Z,16.16
2019-03-21T12:37:29.859Z,16.18
2019-03-21T12:40:32.019Z,16.12
2019-03-21T12:43:33.885Z,16.02
2019-03-21T12:46:35.767Z,16.09
2019-03-21T12:49:37.736Z,16.26
2019-03-21T12:53:37.217Z,16.23
2019-03-21T12:55:43.465Z,16.24
2019-03-21T12:58:45.759Z,16.26
2019-03-21T13:01:47.657Z,16.24
2019-03-21T13:04:49.587Z,16.42
2019-03-21T13:07:51.509Z,16.70
2019-03-21T13:10:53.466Z,16.75
2019-03-21T13:13:55.451Z,16.64
2019-03-21T13:16:57.335Z,16.66
2019-03-21T13:19:59.329Z,16.62
2019-03-21T13:23:01.273Z,16.64
2019-03-21T13:26:03.222Z,16.65
2019-03-21T13:29:05.141Z,16.60
2019-03-21T13:32:07.189Z,16.52
2019-03-21T13:35:09.377Z,16.48
2019-03-21T13:38:11.417Z,16.34
2019-03-21T13:41:13.378Z,16.34
2019-03-21T13:44:16.003Z,16.33
2019-03-21T13:47:17.914Z,16.31
2019-03-21T13:50:19.950Z,16.32
2019-03-21T13:53:22.010Z,16.29
2019-03-21T13:56:24.020Z,16.31
2019-03-21T13:59:27.137Z,16.49
2019-03-21T14:02:29.181Z,16.73
2019-03-21T14:05:31.079Z,16.73
2019-03-21T14:08:33.079Z,16.73
2019-03-21T14:11:36.121Z,16.78
2019-03-21T14:14:38.050Z,16.77
2019-03-21T14:17:40.003Z,16.87
2019-03-21T14:20:41.942Z,16.91
2019-03-21T14:23:43.929Z,16.80
2019-03-21T14:26:45.918Z,16.89
2019-03-21T14:29:47.780Z,16.95
2019-03-21T14:32:49.715Z,16.95
2019-03-21T14:35:51.736Z,16.93
2019-03-21T14:38:53.706Z,16.86
2019-03-21T14:41:55.625Z,16.84
2019-03-21T14:44:57.581Z,16.85
2019-03-21T14:47:59.482Z,16.86
2019-03-21T14:51:01.490Z,16.76
2019-03-21T14:54:03.379Z,16.65
2019-03-21T14:57:05.298Z,16.47
2019-03-21T15:00:13.845Z,16.53
2019-03-21T15:03:15.800Z,16.57
2019-03-21T15:06:17.708Z,16.54
2019-03-21T15:09:19.718Z,16.39
2019-03-21T15:12:21.615Z,16.42
2019-03-21T15:15:23.624Z,16.40
2019-03-21T15:18:25.588Z,16.30
2019-03-21T15:21:27.489Z,16.21
2019-03-21T15:24:29.443Z,16.04
2019-03-21T15:27:31.412Z,15.86
2019-03-21T15:30:33.366Z,15.78
2019-03-21T15:33:35.340Z,15.77
2019-03-21T15:36:38.474Z,15.73
2019-03-21T15:39:41.303Z,15.64
2019-03-21T15:42:43.181Z,15.56
2019-03-21T15:45:45.082Z,15.42
2019-03-21T15:48:46.971Z,15.42
2019-03-21T15:51:49.030Z,15.43
2019-03-21T15:54:51.029Z,15.39
2019-03-21T15:57:52.999Z,15.34
2019-03-21T16:00:54.894Z,15.25
2019-03-21T16:03:57.453Z,15.14
2019-03-21T16:06:59.561Z,15.00
2019-03-21T16:10:01.742Z,14.89
2019-03-21T16:13:04.068Z,14.82
2019-03-21T16:16:06.201Z,14.79
2019-03-21T16:19:08.598Z,14.77
2019-03-21T16:22:10.477Z,14.62
2019-03-21T16:25:12.377Z,14.51
2019-03-21T16:28:14.706Z,14.43
2019-03-21T16:31:16.724Z,14.36
2019-03-21T16:34:18.640Z,14.29
2019-03-21T16:37:20.543Z,14.22
2019-03-21T16:40:22.606Z,14.11
2019-03-21T16:43:24.565Z,14.03
2019-03-21T16:46:27.433Z,13.95
2019-03-21T16:49:29.375Z,13.85
2019-03-21T16:52:31.351Z,13.79
2019-03-21T16:55:33.367Z,13.66
2019-03-21T16:58:35.553Z,13.54
2019-03-21T17:01:37.693Z,13.44
2019-03-21T17:04:39.994Z,13.26
2019-03-21T17:07:41.912Z,13.14
2019-03-21T17:10:43.942Z,13.05
2019-03-21T17:13:45.973Z,12.94
2019-03-21T17:16:48.633Z,12.85
2019-03-21T17:19:50.537Z,12.76
2019-03-21T17:22:52.552Z,12.65
2019-03-21T17:25:54.519Z,12.55
2019-03-21T17:28:58.144Z,12.45
2019-03-21T17:32:00.076Z,12.38
2019-03-21T17:35:02.750Z,12.21
2019-03-21T17:38:04.622Z,12.03
2019-03-21T17:41:06.636Z,11.87
2019-03-21T17:44:10.300Z,11.70
2019-03-21T17:47:12.229Z,11.49
2019-03-21T17:50:15.572Z,11.30
2019-03-21T17:53:17.654Z,11.11
2019-03-21T17:56:19.635Z,10.95
2019-03-21T17:59:21.549Z,10.88
2019-03-21T18:02:23.503Z,10.90
2019-03-21T18:05:27.276Z,10.90
2019-03-21T18:08:29.462Z,10.87
2019-03-21T18:11:34.793Z,10.78
2019-03-21T18:14:37.054Z,10.64
2019-03-21T18:17:39.061Z,10.48
2019-03-21T18:20:41.395Z,10.29
2019-03-21T18:23:43.351Z,10.18
2019-03-21T18:26:45.596Z,10.10
2019-03-21T18:29:47.509Z,10.02
2019-03-21T18:32:53.361Z,9.88
2019-03-21T18:35:55.299Z,9.79
2019-03-21T18:38:59.966Z,9.76
2019-03-21T18:42:03.812Z,9.76
2019-03-21T18:45:11.625Z,9.74
2019-03-21T18:48:13.535Z,9.72
2019-03-21T18:51:16.668Z,9.62
2019-03-21T18:54:18.815Z,9.57
2019-03-21T18:57:20.765Z,9.52
2019-03-21T19:00:23.777Z,9.48
2019-03-21T19:03:25.967Z,9.43
2019-03-21T19:06:28.483Z,9.34
2019-03-21T19:09:30.435Z,9.23
2019-03-21T19:12:37.787Z,9.08
2019-03-21T19:15:41.179Z,8.99
2019-03-21T19:18:43.223Z,8.96
2019-03-21T19:21:45.660Z,8.96
2019-03-21T19:24:47.659Z,8.94
2019-03-21T19:27:49.824Z,8.88
2019-03-21T19:30:51.724Z,8.82
2019-03-21T19:33:54.771Z,8.73
2019-03-21T19:36:59.649Z,8.68
2019-03-21T19:40:04.148Z,8.63
2019-03-21T19:43:06.350Z,8.54
2019-03-21T19:46:08.343Z,8.51
2019-03-21T19:49:10.675Z,8.51
2019-03-21T19:52:15.872Z,8.49
2019-03-21T19:55:30.337Z,8.45
2019-03-21T19:58:24.393Z,8.44
2019-03-21T20:01:27.634Z,8.34
2019-03-21T20:04:29.572Z,8.32
2019-03-21T20:07:33.600Z,8.30
2019-03-21T20:10:35.988Z,8.18
2019-03-21T20:13:39.191Z,8.08
2019-03-21T20:16:41.132Z,8.08
2019-03-21T20:19:43.403Z,8.11
2019-03-21T20:22:45.562Z,8.11
2019-03-21T20:25:49.175Z,8.09
2019-03-21T20:28:51.091Z,8.07
2019-03-21T20:31:53.690Z,8.00
2019-03-21T20:34:57.515Z,7.95
2019-03-21T20:38:03.438Z,7.92
2019-03-21T20:41:05.657Z,7.92
2019-03-21T20:44:15.056Z,7.89
2019-03-21T20:47:12.044Z,7.81
2019-03-21T20:50:14.232Z,7.75
2019-03-21T20:53:16.138Z,7.70
2019-03-21T20:56:18.407Z,7.65
2019-03-21T20:59:20.302Z,7.59
2019-03-21T21:02:22.211Z,7.57
2019-03-21T21:05:24.406Z,7.49
2019-03-21T21:08:27.321Z,7.44
2019-03-21T21:11:29.339Z,7.39
2019-03-21T21:14:31.239Z,7.40
2019-03-21T21:17:34.352Z,7.37
2019-03-21T21:20:36.261Z,7.31
2019-03-21T21:23:40.119Z,7.29
2019-03-21T21:26:43.426Z,7.21
2019-03-21T21:29:45.427Z,7.12
2019-03-21T21:32:47.350Z,7.08
2019-03-21T21:35:49.298Z,7.03
2019-03-21T21:38:51.193Z,6.90
2019-03-21T21:41:53.102Z,6.83
2019-03-21T21:44:55.051Z,6.69
2019-03-21T21:47:57.013Z,6.58
2019-03-21T21:50:59.226Z,6.46
2019-03-21T21:54:01.175Z,6.42
2019-03-21T21:57:03.177Z,6.25
2019-03-21T22:00:11.144Z,6.13
2019-03-21T22:03:13.045Z,6.15
2019-03-21T22:06:14.907Z,6.19
2019-03-21T22:09:16.870Z,6.20
2019-03-21T22:12:18.795Z,6.20
2019-03-21T22:15:20.663Z,6.13
2019-03-21T22:18:22.616Z,6.06
2019-03-21T22:21:24.495Z,6.03
2019-03-21T22:24:26.425Z,6.01
2019-03-21T22:27:28.343Z,5.97
2019-03-21T22:30:30.274Z,5.87
2019-03-21T22:33:32.195Z,5.84
2019-03-21T22:36:34.060Z,5.83
2019-03-21T22:39:35.963Z,5.81
2019-03-21T22:42:37.925Z,5.72
2019-03-21T22:45:39.812Z,5.61
2019-03-21T22:48:41.713Z,5.58
2019-03-21T22:51:43.668Z,5.48
2019-03-21T22:54:46.841Z,5.45
2019-03-21T22:57:49.170Z,5.45
2019-03-21T23:00:52.542Z,5.37
2019-03-21T23:03:54.657Z,5.27
2019-03-21T23:06:56.629Z,5.16
2019-03-21T23:09:58.481Z,5.09
2019-03-21T23:13:01.127Z,5.14
2019-03-21T23:16:03.158Z,5.08
2019-03-21T23:19:05.093Z,5.02
2019-03-21T23:22:06.994Z,4.97
2019-03-21T23:25:10.127Z,5.00
2019-03-21T23:28:11.983Z,4.95
2019-03-21T23:31:13.883Z,4.98
2019-03-21T23:34:15.905Z,4.94
2019-03-21T23:37:17.833Z,4.82
2019-03-21T23:40:19.838Z,4.76
2019-03-21T23:43:23.742Z,4.74
2019-03-21T23:46:25.662Z,4.78
2019-03-21T23:49:27.588Z,4.79
2019-03-21T23:52:29.491Z,4.80
2019-03-21T23:55:31.511Z,4.77
2019-03-21T23:58:33.533Z,4.74
